Time;durP1;ratioP1;P1;durP2;ratioP2;P2;SDS_P1;SDS_P2;PMS_P1;PMS_P2;Temp;Humidity;BMP_temperature;BMP_pressure;BME280_temperature;BME280_humidity;BME280_pressure;Samples;Min_cycle;Max_cycle;Signal;HPM_P1;HPM_P2
2024/04/16 00:01:49;;;;;;;2.30;0.60;;;;;;;7.97;89.64;97304.44;4500934;26;20619;-81
2024/04/16 00:03:52;;;;;;;1.10;0.40;;;;;;;7.94;89.76;97301.22;4526260;26;20725;-80
2024/04/16 00:05:58;;;;;;;1.60;0.52;;;;;;;7.93;89.67;97293.56;4538627;26;20229;-81
2024/04/16 00:08:01;;;;;;;1.38;0.50;;;;;;;7.90;89.95;97288.56;4503847;26;20371;-82
2024/04/16 00:10:07;;;;;;;1.50;0.68;;;;;;;7.80;90.69;97296.16;4535992;26;20250;-80
2024/04/16 00:12:11;;;;;;;1.55;0.50;;;;;;;7.86;90.20;97292.31;4532815;26;20246;-80
2024/04/16 00:14:39;;;;;;;1.45;0.50;;;;;;;7.78;89.82;97281.66;4536066;26;20268;-81
2024/04/16 00:16:45;;;;;;;2.22;0.45;;;;;;;7.69;90.35;97287.47;4498006;26;20301;-82
2024/04/16 00:18:51;;;;;;;3.50;0.57;;;;;;;7.58;91.37;97283.03;4531195;26;20330;-81
2024/04/16 00:20:54;;;;;;;1.52;0.60;;;;;;;7.50;91.80;97281.91;4529694;26;20254;-81
2024/04/16 00:23:00;;;;;;;2.15;0.50;;;;;;;7.48;92.43;97268.22;4541779;25;20762;-81
2024/04/16 00:25:04;;;;;;;1.85;0.60;;;;;;;7.38;92.93;97259.44;4534677;26;20254;-81
2024/04/16 00:27:09;;;;;;;1.38;0.50;;;;;;;7.42;92.56;97262.63;4505082;26;20234;-81
2024/04/16 00:29:12;;;;;;;1.30;0.50;;;;;;;7.45;93.43;97265.84;4533248;26;20241;-81
2024/04/16 00:31:17;;;;;;;3.03;0.80;;;;;;;7.46;93.07;97264.91;4569857;25;20241;-81
2024/04/16 00:33:23;;;;;;;2.55;0.77;;;;;;;7.41;93.63;97269.56;4532451;26;20245;-81
2024/04/16 00:35:29;;;;;;;2.05;0.60;;;;;;;7.32;93.56;97265.03;4533652;26;20238;-81
2024/04/16 00:37:32;;;;;;;1.77;0.80;;;;;;;7.26;94.20;97272.38;4506737;26;20783;-81
2024/04/16 00:39:37;;;;;;;1.48;0.50;;;;;;;7.23;94.64;97242.34;4501354;26;20278;-81
2024/04/16 00:41:40;;;;;;;1.40;0.63;;;;;;;7.23;95.40;97219.00;4529805;26;20728;-81
2024/04/16 00:43:46;;;;;;;4.93;1.00;;;;;;;7.23;95.49;97225.91;4537536;26;20276;-81
2024/04/16 00:45:51;;;;;;;3.35;0.70;;;;;;;7.14;95.59;97237.78;4532151;26;20808;-81
2024/04/16 00:47:57;;;;;;;3.75;1.00;;;;;;;7.13;95.87;97256.84;4539740;26;20253;-81
2024/04/16 00:50:04;;;;;;;2.45;0.90;;;;;;;7.22;96.45;97263.19;4528595;26;20234;-81
2024/04/16 00:52:11;;;;;;;3.58;0.60;;;;;;;7.25;96.52;97245.63;4535047;26;20237;-81
2024/04/16 00:54:15;;;;;;;2.67;0.73;;;;;;;7.35;95.82;97245.81;4537256;26;20244;-81
2024/04/16 00:56:21;;;;;;;2.58;0.60;;;;;;;7.43;95.35;97265.13;4536318;26;20720;-81
2024/04/16 00:58:26;;;;;;;2.60;0.65;;;;;;;7.46;94.75;97277.88;4509118;26;20243;-82
2024/04/16 01:00:31;;;;;;;3.78;0.90;;;;;;;7.46;94.39;97256.28;4528261;26;20281;-81
2024/04/16 01:02:35;;;;;;;4.50;0.80;;;;;;;7.50;94.14;97248.19;4527040;26;20255;-81
2024/04/16 01:04:40;;;;;;;1.48;0.80;;;;;;;7.46;93.76;97240.72;4534823;26;20648;-81
2024/04/16 01:06:46;;;;;;;3.35;0.88;;;;;;;7.52;94.04;97233.34;4536234;26;20254;-81
2024/04/16 01:08:52;;;;;;;1.45;0.88;;;;;;;7.62;94.44;97235.19;4528503;26;20244;-80
2024/04/16 01:10:56;;;;;;;2.30;0.70;;;;;;;7.56;94.33;97242.56;4550670;26;20275;-81
2024/04/16 01:13:02;;;;;;;3.38;0.90;;;;;;;7.45;93.33;97234.72;4520303;26;20270;-82
2024/04/16 01:15:05;;;;;;;2.63;1.17;;;;;;;7.40;94.26;97233.38;4501918;26;20254;-81
2024/04/16 01:17:11;;;;;;;3.30;0.80;;;;;;;7.34;94.32;97237.22;4505120;26;20270;-82
2024/04/16 01:19:15;;;;;;;7.00;1.42;;;;;;;7.35;94.51;97219.88;4530768;26;20259;-81
2024/04/16 01:21:20;;;;;;;3.55;1.05;;;;;;;7.33;94.49;97212.22;4510769;26;20255;-81
2024/04/16 01:23:25;;;;;;;5.88;0.90;;;;;;;7.33;93.55;97221.78;4536187;26;20260;-81
2024/04/16 01:25:35;;;;;;;2.55;0.95;;;;;;;7.32;93.90;97220.94;4544398;26;20301;-81
2024/04/16 01:27:38;;;;;;;2.08;0.70;;;;;;;7.32;94.27;97241.69;4533561;26;20285;-81
2024/04/16 01:29:43;;;;;;;2.50;0.98;;;;;;;7.34;94.24;97260.56;4537980;26;20690;-81
2024/04/16 01:31:47;;;;;;;1.90;0.75;;;;;;;7.26;94.46;97252.50;4534424;26;20272;-81
2024/04/16 01:33:52;;;;;;;3.25;0.80;;;;;;;7.29;94.20;97236.72;4529165;26;20245;-81
2024/04/16 01:35:55;;;;;;;2.67;0.95;;;;;;;7.28;94.88;97229.88;4531530;26;20285;-81
2024/04/16 01:38:01;;;;;;;4.32;1.10;;;;;;;7.25;94.11;97235.25;4538564;26;20321;-81
2024/04/16 01:40:10;;;;;;;3.42;0.90;;;;;;;7.23;93.69;97221.59;4525687;26;20639;-82
2024/04/16 01:42:16;;;;;;;3.78;1.00;;;;;;;7.31;94.46;97227.06;4552368;26;20244;-81
2024/04/16 01:44:19;;;;;;;3.88;1.13;;;;;;;7.30;93.61;97228.00;4530192;26;20246;-81
2024/04/16 01:46:24;;;;;;;4.15;1.00;;;;;;;7.37;93.99;97231.81;4509609;26;20244;-80
2024/04/16 01:48:27;;;;;;;4.07;1.10;;;;;;;7.44;93.92;97220.06;4532377;26;20252;-81
2024/04/16 01:50:33;;;;;;;3.08;1.02;;;;;;;7.46;94.10;97223.41;4537772;26;20290;-81
2024/04/16 01:52:36;;;;;;;2.88;0.70;;;;;;;7.52;94.05;97236.75;4529712;26;20306;-82
2024/04/16 01:54:42;;;;;;;3.67;0.98;;;;;;;7.59;93.82;97245.78;4538061;26;20280;-81
2024/04/16 01:56:50;;;;;;;5.22;1.15;;;;;;;7.69;93.60;97243.38;4532931;26;20307;-81
2024/04/16 01:58:56;;;;;;;2.05;1.00;;;;;;;7.67;92.83;97230.50;4545460;26;20341;-81
2024/04/16 02:00:59;;;;;;;6.50;1.40;;;;;;;7.69;92.88;97212.22;4531835;26;20629;-81
2024/04/16 02:03:06;;;;;;;3.72;1.30;;;;;;;7.66;92.35;97210.69;4534961;26;20274;-81
2024/04/16 02:05:09;;;;;;;5.55;1.27;;;;;;;7.68;92.42;97202.78;4536017;26;20297;-81
2024/04/16 02:07:17;;;;;;;7.47;1.40;;;;;;;7.60;92.93;97216.28;4508791;26;20337;-82
2024/04/16 02:09:20;;;;;;;6.70;1.35;;;;;;;7.54;91.85;97215.91;4543446;26;20247;-81
2024/04/16 02:11:26;;;;;;;5.97;2.03;;;;;;;7.58;92.49;97212.19;4501903;26;20255;-81
2024/04/16 02:13:31;;;;;;;3.42;1.10;;;;;;;7.69;92.40;97218.25;4533154;26;20249;-81
2024/04/16 02:15:37;;;;;;;3.78;1.20;;;;;;;7.71;92.51;97208.59;4540001;26;20271;-80
2024/04/16 02:17:40;;;;;;;5.32;1.35;;;;;;;7.60;93.30;97213.69;4530128;26;20248;-81
2024/04/16 02:19:46;;;;;;;2.50;0.80;;;;;;;7.51;93.91;97216.13;4526499;26;20239;-81
2024/04/16 02:21:49;;;;;;;2.35;0.80;;;;;;;7.44;95.02;97214.88;4533154;26;20280;-81
2024/04/16 02:23:54;;;;;;;6.82;1.15;;;;;;;7.31;95.53;97214.09;4528076;26;20280;-81
2024/04/16 02:25:58;;;;;;;2.17;0.90;;;;;;;7.31;95.72;97213.28;4509214;26;20300;-81
2024/04/16 02:28:03;;;;;;;4.13;1.13;;;;;;;7.37;95.73;97213.66;4538769;26;20348;-81
2024/04/16 02:30:09;;;;;;;5.85;1.27;;;;;;;7.33;95.16;97220.00;4512005;26;20268;-82
2024/04/16 02:32:15;;;;;;;4.80;1.38;;;;;;;7.30;94.30;97194.28;4507790;26;20687;-81
2024/04/16 02:34:18;;;;;;;3.75;1.20;;;;;;;7.34;93.79;97203.50;4535339;26;20289;-81
2024/04/16 02:36:24;;;;;;;3.35;1.10;;;;;;;7.35;93.92;97197.41;4545996;26;20238;-81
2024/04/16 02:38:27;;;;;;;6.78;1.50;;;;;;;7.35;93.93;97205.19;4526928;26;20242;-81
2024/04/16 02:40:33;;;;;;;5.60;1.40;;;;;;;7.37;94.06;97197.28;4534089;26;20233;-81
2024/04/16 02:42:36;;;;;;;3.75;1.10;;;;;;;7.40;93.83;97213.47;4534441;26;20301;-81
2024/04/16 02:44:42;;;;;;;5.13;1.75;;;;;;;7.40;93.72;97184.94;4568029;25;20245;-81
2024/04/16 02:46:48;;;;;;;7.55;1.60;;;;;;;7.36;94.17;97180.88;4531300;26;20254;-80
2024/04/16 02:48:54;;;;;;;4.53;1.60;;;;;;;7.35;93.97;97188.78;4530973;26;20283;-82
2024/04/16 02:51:00;;;;;;;6.07;1.65;;;;;;;7.32;93.97;97174.28;4527951;26;20245;-81
2024/04/16 02:53:06;;;;;;;5.20;1.65;;;;;;;7.37;94.66;97182.56;4525533;26;20250;-81
2024/04/16 02:55:09;;;;;;;7.68;1.67;;;;;;;7.39;94.08;97179.84;4525589;26;20268;-81
2024/04/16 02:57:14;;;;;;;5.25;1.65;;;;;;;7.44;93.96;97194.13;4498371;26;20298;-81
2024/04/16 02:59:17;;;;;;;5.97;1.40;;;;;;;7.50;93.90;97201.47;4539249;26;20278;-81
2024/04/16 03:01:20;;;;;;;4.47;1.35;;;;;;;7.54;94.26;97205.53;4533100;26;20242;-81
2024/04/16 03:03:28;;;;;;;4.25;1.00;;;;;;;7.53;94.85;97188.28;4532211;26;20317;-81
2024/04/16 03:05:31;;;;;;;4.90;1.45;;;;;;;7.48;94.31;97197.38;4536860;26;20314;-81
2024/04/16 03:07:38;;;;;;;3.85;1.35;;;;;;;7.45;94.59;97175.06;4527986;26;20285;-81
2024/04/16 03:09:41;;;;;;;2.63;1.20;;;;;;;7.45;94.67;97185.44;4525591;26;20709;-81
2024/04/16 03:11:47;;;;;;;5.82;1.42;;;;;;;7.45;94.31;97179.41;4499688;26;20288;-81
2024/04/16 03:13:51;;;;;;;2.53;1.23;;;;;;;7.45;94.48;97182.84;4530898;26;20238;-81
2024/04/16 03:15:57;;;;;;;3.10;1.30;;;;;;;7.46;94.91;97205.25;4530035;26;20639;-81
2024/04/16 03:18:00;;;;;;;5.32;1.40;;;;;;;7.46;95.71;97197.47;4547780;26;20813;-81
2024/04/16 03:20:09;;;;;;;4.38;1.10;;;;;;;7.48;96.34;97212.94;4564138;26;20268;-81
2024/04/16 03:22:12;;;;;;;4.80;1.10;;;;;;;7.52;96.15;97217.78;4530916;26;20253;-81
2024/04/16 03:24:21;;;;;;;8.02;1.73;;;;;;;7.42;96.83;97206.38;4499732;26;20234;-81
2024/04/16 03:26:24;;;;;;;7.32;1.77;;;;;;;7.48;96.48;97212.94;4499358;26;20283;-81
2024/04/16 03:28:29;;;;;;;5.38;1.70;;;;;;;7.52;96.79;97210.00;4567762;25;20847;-82
2024/04/16 03:30:33;;;;;;;9.05;1.67;;;;;;;7.59;96.31;97213.81;4532737;26;20263;-81
2024/04/16 03:32:38;;;;;;;3.78;1.48;;;;;;;7.62;95.97;97217.03;4536723;26;20369;-81
2024/04/16 03:34:41;;;;;;;3.38;1.40;;;;;;;7.69;95.48;97220.84;4520685;26;20248;-81
2024/04/16 03:36:50;;;;;;;6.28;1.90;;;;;;;7.72;95.96;97223.22;4566188;25;20284;-81
2024/04/16 03:38:57;;;;;;;4.10;1.75;;;;;;;7.75;95.45;97224.78;4534369;26;20345;-81
2024/04/16 03:41:03;;;;;;;4.20;1.20;;;;;;;7.79;95.51;97228.81;4531827;26;20240;-81
2024/04/16 03:43:09;;;;;;;5.68;1.63;;;;;;;7.77;95.42;97238.47;4542009;26;20242;-81
2024/04/16 03:45:13;;;;;;;4.18;1.83;;;;;;;7.80;96.15;97226.09;4528117;26;20247;-81
2024/04/16 03:47:18;;;;;;;9.65;1.95;;;;;;;7.87;95.71;97226.50;4493674;26;20242;-81
2024/04/16 03:49:21;;;;;;;6.82;1.50;;;;;;;7.92;95.55;97230.41;4531477;26;20725;-81
2024/04/16 03:51:27;;;;;;;4.70;1.80;;;;;;;7.98;94.88;97233.41;4534055;26;20291;-81
2024/04/16 03:53:34;;;;;;;5.28;1.60;;;;;;;8.04;94.85;97237.31;4533132;26;20250;-81
2024/04/16 03:55:44;;;;;;;5.13;1.70;;;;;;;8.10;94.82;97236.88;4562641;26;20312;-82
2024/04/16 03:57:47;;;;;;;3.50;1.65;;;;;;;8.14;94.17;97244.38;4529375;26;20234;-81
2024/04/16 04:02:20;;;;;;;5.72;1.80;;;;;;;8.20;93.55;97230.13;4530186;26;20660;-82
2024/04/16 04:04:23;;;;;;;7.47;1.80;;;;;;;8.11;92.88;97236.78;4531651;26;20249;-81
2024/04/16 04:06:30;;;;;;;8.00;1.80;;;;;;;8.05;91.96;97237.19;4524999;26;20249;-82
2024/04/16 04:08:35;;;;;;;5.72;1.80;;;;;;;7.91;92.61;97231.38;4534394;26;20245;-81
2024/04/16 04:10:41;;;;;;;6.50;1.85;;;;;;;7.92;92.92;97242.56;4534624;26;20286;-81
2024/04/16 04:12:44;;;;;;;6.80;1.55;;;;;;;7.95;92.10;97250.13;4534933;26;20350;-82
2024/04/16 04:14:51;;;;;;;6.15;1.63;;;;;;;7.95;92.04;97248.34;4538791;26;20248;-82
2024/04/16 04:16:54;;;;;;;6.47;1.80;;;;;;;7.96;91.71;97256.03;4564543;25;20292;-81
2024/04/16 04:19:00;;;;;;;5.75;1.70;;;;;;;7.94;90.35;97248.47;4538728;26;20241;-82
2024/04/16 04:21:04;;;;;;;6.28;1.90;;;;;;;7.92;89.45;97253.75;4536317;26;20682;-81
2024/04/16 04:23:10;;;;;;;6.15;1.90;;;;;;;7.93;88.30;97244.22;4535607;26;20251;-81
2024/04/16 04:25:15;;;;;;;6.63;1.90;;;;;;;7.86;87.43;97243.00;4536384;26;20241;-81
2024/04/16 04:27:21;;;;;;;5.45;1.80;;;;;;;7.89;86.88;97237.59;4561065;25;20236;-81
2024/04/16 04:29:24;;;;;;;5.80;2.90;;;;;;;7.90;86.27;97241.84;4520433;26;20283;-81
2024/04/16 04:31:29;;;;;;;6.20;1.50;;;;;;;7.92;86.63;97245.16;4509337;26;20287;-82
2024/04/16 04:33:32;;;;;;;6.75;1.63;;;;;;;7.95;86.85;97237.97;4507238;26;20254;-81
2024/04/16 04:35:38;;;;;;;5.05;1.33;;;;;;;7.92;85.82;97238.19;4529395;26;20242;-82
2024/04/16 04:37:41;;;;;;;6.90;1.65;;;;;;;7.91;85.99;97238.31;4500869;26;20245;-81
2024/04/16 04:39:47;;;;;;;4.53;2.47;;;;;;;7.96;85.97;97233.63;4531329;26;20241;-81
2024/04/16 04:41:53;;;;;;;6.10;1.80;;;;;;;7.96;86.00;97239.63;4544841;26;20316;-81
2024/04/16 04:44:00;;;;;;;6.63;1.40;;;;;;;8.00;86.41;97236.72;4507913;26;20257;-81
2024/04/16 04:46:03;;;;;;;5.53;1.50;;;;;;;8.02;86.65;97240.03;4537144;26;20249;-81
2024/04/16 04:48:09;;;;;;;10.35;2.22;;;;;;;8.07;86.34;97252.66;4504254;26;20337;-82
2024/04/16 04:50:15;;;;;;;5.78;1.40;;;;;;;8.11;86.66;97254.13;4524781;26;20237;-81
2024/04/16 04:52:21;;;;;;;5.88;1.60;;;;;;;8.16;86.40;97258.09;4532450;26;20239;-81
2024/04/16 04:54:24;;;;;;;10.43;1.90;;;;;;;8.24;86.72;97266.16;4560299;26;20240;-82
2024/04/16 04:56:30;;;;;;;5.97;1.35;;;;;;;8.31;86.96;97272.53;4526721;26;20245;-81
2024/04/16 04:58:35;;;;;;;7.07;1.70;;;;;;;8.36;86.89;97275.66;4531433;26;20647;-81
2024/04/16 05:00:42;;;;;;;6.82;2.50;;;;;;;8.35;86.89;97275.75;4491872;26;21196;-81
2024/04/16 05:02:45;;;;;;;7.18;2.40;;;;;;;8.33;87.30;97273.28;4532388;26;20233;-81
2024/04/16 05:04:51;;;;;;;4.35;1.60;;;;;;;8.28;86.70;97274.53;4505475;26;20292;-81
2024/04/16 05:06:55;;;;;;;3.88;1.58;;;;;;;8.30;87.20;97281.28;4542695;26;20248;-82
2024/04/16 05:09:01;;;;;;;4.60;1.67;;;;;;;8.33;88.11;97280.22;4533284;26;20295;-81
2024/04/16 05:11:05;;;;;;;7.35;2.00;;;;;;;8.33;86.89;97281.06;4541911;26;20239;-81
2024/04/16 05:13:10;;;;;;;8.00;1.90;;;;;;;8.38;87.17;97284.16;4535299;26;20272;-81
2024/04/16 05:15:17;;;;;;;6.70;1.70;;;;;;;8.41;86.77;97286.53;4511318;26;20285;-81
2024/04/16 05:17:23;;;;;;;8.77;2.05;;;;;;;8.41;86.65;97283.94;4533165;26;20241;-81
2024/04/16 05:19:26;;;;;;;8.85;2.35;;;;;;;8.39;86.48;97283.22;4542052;26;20256;-81
2024/04/16 05:21:32;;;;;;;5.60;1.63;;;;;;;8.43;86.78;97282.03;4545464;26;20253;-81
2024/04/16 05:23:35;;;;;;;8.98;2.50;;;;;;;8.41;85.90;97285.72;4532782;26;20724;-81
2024/04/16 05:25:41;;;;;;;8.73;2.15;;;;;;;8.33;86.21;97280.22;4548439;25;20244;-81
2024/04/16 05:27:44;;;;;;;5.90;1.55;;;;;;;8.34;86.54;97290.50;4510395;26;20870;-81
2024/04/16 05:29:50;;;;;;;6.80;1.92;;;;;;;8.39;86.46;97290.16;4533600;26;20332;-81
2024/04/16 05:31:57;;;;;;;5.40;1.60;;;;;;;8.40;86.49;97290.06;4531655;26;20279;-82
2024/04/16 05:34:04;;;;;;;5.22;1.95;;;;;;;8.47;86.56;97296.47;4503830;26;20275;-82
2024/04/16 05:36:09;;;;;;;8.77;2.22;;;;;;;8.49;86.63;97299.78;4529132;26;20263;-81
2024/04/16 05:38:14;;;;;;;6.35;1.80;;;;;;;8.50;86.55;97304.03;4535110;26;20727;-81
2024/04/16 05:40:19;;;;;;;5.32;1.80;;;;;;;8.52;86.56;97304.75;4540634;26;20245;-82
2024/04/16 05:42:25;;;;;;;7.45;3.05;;;;;;;8.48;86.07;97305.94;4525012;26;20674;-83
2024/04/16 05:44:28;;;;;;;7.40;2.28;;;;;;;8.52;85.92;97310.81;4547008;25;20271;-81
2024/04/16 05:46:34;;;;;;;11.75;2.50;;;;;;;8.55;85.63;97314.94;4525763;26;20244;-82
2024/04/16 05:48:46;;;;;;;5.35;2.28;;;;;;;8.54;85.75;97311.50;4527649;26;20322;-82
2024/04/16 05:50:51;;;;;;;6.70;2.28;;;;;;;8.60;85.69;97315.41;4537168;26;20484;-83
2024/04/16 05:52:54;;;;;;;7.60;2.50;;;;;;;8.70;85.72;97322.44;4545305;26;20883;-83
2024/04/16 05:55:00;;;;;;;7.70;2.17;;;;;;;8.76;84.86;97321.97;4539094;26;20265;-83
2024/04/16 05:57:04;;;;;;;10.40;3.33;;;;;;;8.84;84.79;97321.41;4546552;26;20231;-83
2024/04/16 05:59:10;;;;;;;10.10;1.90;;;;;;;8.88;84.94;97333.25;4531456;26;20245;-81
2024/04/16 06:01:14;;;;;;;10.90;2.33;;;;;;;8.86;83.34;97327.34;4531852;26;20257;-82
2024/04/16 06:03:20;;;;;;;9.93;2.45;;;;;;;8.90;83.22;97328.75;4543910;26;20236;-82
2024/04/16 06:05:26;;;;;;;8.27;2.00;;;;;;;8.91;83.32;97330.44;4506615;26;20275;-82
2024/04/16 06:07:32;;;;;;;7.18;2.08;;;;;;;8.95;84.03;97327.50;4552607;26;20251;-83
2024/04/16 06:09:36;;;;;;;11.00;2.25;;;;;;;8.97;83.56;97328.19;4539263;26;20245;-82
2024/04/16 06:11:41;;;;;;;8.02;1.80;;;;;;;8.97;83.37;97331.63;4541703;26;20243;-83
2024/04/16 06:13:45;;;;;;;9.32;2.00;;;;;;;8.99;83.86;97326.31;4503430;26;20319;-82
2024/04/16 06:15:52;;;;;;;11.27;2.00;;;;;;;8.87;84.94;97329.84;4531089;26;20255;-81
2024/04/16 06:17:55;;;;;;;9.37;2.73;;;;;;;8.79;85.75;97337.34;4536404;26;20339;-82
2024/04/16 06:20:02;;;;;;;5.72;1.80;;;;;;;8.76;86.14;97332.38;4527610;26;20611;-81
2024/04/16 06:22:08;;;;;;;4.68;1.60;;;;;;;8.78;86.71;97319.25;4533129;26;20278;-80
2024/04/16 06:24:14;;;;;;;12.93;4.43;;;;;;;8.84;87.27;97324.00;4524639;26;20304;-81
2024/04/16 06:26:17;;;;;;;10.68;3.03;;;;;;;8.96;87.33;97316.16;4532097;26;20250;-81
2024/04/16 06:28:24;;;;;;;9.68;2.70;;;;;;;9.01;86.31;97317.47;4550506;26;20232;-81
2024/04/16 06:30:27;;;;;;;7.13;2.85;;;;;;;9.00;86.84;97321.00;4528937;26;20242;-81
2024/04/16 06:32:34;;;;;;;6.72;2.38;;;;;;;9.06;87.56;97322.31;4535543;26;20658;-81
2024/04/16 06:34:37;;;;;;;7.18;1.80;;;;;;;9.07;87.19;97318.78;4511353;26;20724;-81
2024/04/16 06:36:44;;;;;;;7.45;3.03;;;;;;;9.06;86.63;97325.72;4544424;26;20636;-81
2024/04/16 06:38:50;;;;;;;9.17;2.20;;;;;;;9.05;86.77;97320.66;4547779;26;20275;-81
2024/04/16 06:40:56;;;;;;;7.13;2.22;;;;;;;9.05;86.16;97316.28;4549997;26;20637;-81
2024/04/16 06:42:59;;;;;;;6.43;2.03;;;;;;;9.07;86.75;97313.59;4547303;26;20252;-83
2024/04/16 06:45:05;;;;;;;4.20;1.50;;;;;;;8.97;85.41;97313.41;4534564;26;20554;-82
2024/04/16 06:47:08;;;;;;;4.70;1.85;;;;;;;8.91;86.11;97309.63;4522068;26;20556;-82
2024/04/16 06:49:14;;;;;;;6.10;2.30;;;;;;;8.81;86.40;97313.84;4533773;26;20321;-80
2024/04/16 06:51:21;;;;;;;6.13;2.10;;;;;;;8.72;87.10;97299.78;4535576;26;21722;-82
2024/04/16 06:53:27;;;;;;;4.82;2.00;;;;;;;8.64;86.60;97298.66;4559747;26;21397;-83
2024/04/16 06:55:33;;;;;;;4.07;1.40;;;;;;;8.61;86.98;97299.69;4534449;26;20249;-82
2024/04/16 06:57:43;;;;;;;5.60;1.92;;;;;;;8.67;86.89;97286.25;4534287;26;20237;-82
2024/04/16 06:59:46;;;;;;;5.07;1.75;;;;;;;8.74;88.26;97297.06;4551776;26;20291;-82
2024/04/16 07:01:52;;;;;;;5.80;1.60;;;;;;;8.77;88.31;97304.63;4547777;26;20980;-81
2024/04/16 07:03:57;;;;;;;5.97;1.55;;;;;;;8.85;86.76;97292.72;4534837;26;20272;-81
2024/04/16 07:06:03;;;;;;;4.20;1.70;;;;;;;9.13;87.96;97303.53;4542574;26;20247;-82
2024/04/16 07:08:07;;;;;;;3.97;1.88;;;;;;;9.55;87.29;97298.50;4522759;26;20239;-82
2024/04/16 07:10:12;;;;;;;3.67;1.60;;;;;;;9.56;85.51;97299.31;4537105;26;20841;-81
2024/04/16 07:12:18;;;;;;;6.57;2.15;;;;;;;9.53;83.20;97297.81;4531612;26;20325;-81
2024/04/16 07:14:23;;;;;;;7.05;1.80;;;;;;;9.51;84.20;97291.88;4532869;26;20285;-81
2024/04/16 07:16:27;;;;;;;8.77;1.95;;;;;;;9.59;84.33;97305.13;4532269;26;20245;-81
2024/04/16 07:18:32;;;;;;;6.30;2.08;;;;;;;10.03;86.21;97305.97;4541445;26;20343;-82
2024/04/16 07:20:35;;;;;;;4.47;1.75;;;;;;;10.22;83.60;97306.16;4538452;26;20247;-82
2024/04/16 07:22:45;;;;;;;7.15;2.50;;;;;;;10.35;80.74;97296.41;4525573;26;20245;-81
2024/04/16 07:24:49;;;;;;;5.93;2.63;;;;;;;10.46;79.85;97304.19;4541164;26;20253;-81
2024/04/16 07:26:52;;;;;;;5.87;1.67;;;;;;;10.52;80.83;97294.09;4542636;26;20764;-80
2024/04/16 07:29:00;;;;;;;5.15;1.85;;;;;;;10.38;79.47;97285.75;4528545;26;21533;-80
2024/04/16 07:31:06;;;;;;;10.20;2.60;;;;;;;10.63;81.32;97290.63;4539589;26;20749;-81
2024/04/16 07:33:21;;;;;;;4.00;1.90;;;;;;;10.73;78.60;97288.94;4535377;26;20245;-81
2024/04/16 07:35:24;;;;;;;6.95;2.10;;;;;;;10.68;78.88;97283.28;4538493;26;20267;-81
2024/04/16 07:37:30;;;;;;;5.72;1.88;;;;;;;10.60;78.45;97286.50;4535139;26;20240;-80
2024/04/16 07:39:33;;;;;;;7.20;1.83;;;;;;;10.56;78.67;97285.09;4538726;26;20323;-81
2024/04/16 07:41:42;;;;;;;5.10;1.70;;;;;;;10.52;78.20;97278.44;4532008;26;20583;-81
2024/04/16 07:43:45;;;;;;;4.37;2.17;;;;;;;10.56;78.29;97276.44;4537252;26;20554;-81
2024/04/16 07:45:53;;;;;;;9.17;1.90;;;;;;;10.67;77.98;97279.81;4530034;26;20686;-81
2024/04/16 07:47:56;;;;;;;5.10;1.30;;;;;;;10.77;75.31;97274.69;4571485;25;20678;-82
2024/04/16 07:50:02;;;;;;;5.90;1.63;;;;;;;10.75;75.24;97268.75;4527427;26;20241;-81
2024/04/16 07:52:06;;;;;;;4.07;1.40;;;;;;;10.77;72.74;97256.44;4540694;26;20343;-81
2024/04/16 07:54:11;;;;;;;3.50;1.50;;;;;;;10.74;70.38;97246.25;4511242;26;20573;-81
2024/04/16 07:56:17;;;;;;;4.03;1.25;;;;;;;10.69;70.23;97244.03;4535104;26;20582;-82
2024/04/16 07:58:24;;;;;;;3.87;1.10;;;;;;;10.98;69.01;97256.31;4534035;26;20281;-81
2024/04/16 08:00:28;;;;;;;4.90;1.30;;;;;;;11.13;69.86;97260.25;4526135;26;21007;-82
2024/04/16 08:02:36;;;;;;;5.97;1.40;;;;;;;11.16;70.93;97249.56;4500732;26;20680;-81
2024/04/16 08:04:43;;;;;;;4.37;1.37;;;;;;;11.12;68.23;97253.38;4530516;26;20633;-81
2024/04/16 08:06:49;;;;;;;4.50;1.00;;;;;;;10.93;67.28;97232.38;4556786;26;20597;-82
2024/04/16 08:08:56;;;;;;;5.30;1.10;;;;;;;10.73;67.41;97227.16;4565981;26;20597;-81
2024/04/16 08:11:10;;;;;;;5.60;1.33;;;;;;;10.77;66.54;97227.75;4538711;26;20554;-81
2024/04/16 08:13:13;;;;;;;2.60;0.90;;;;;;;10.80;67.19;97236.97;4522468;26;20344;-80
2024/04/16 08:15:19;;;;;;;5.70;1.13;;;;;;;10.89;67.02;97224.94;4502882;26;21222;-81
2024/04/16 08:17:22;;;;;;;4.03;1.07;;;;;;;10.83;67.23;97226.28;4549265;26;20550;-81
2024/04/16 08:19:32;;;;;;;7.18;1.50;;;;;;;10.76;67.04;97218.25;4541913;26;20554;-81
2024/04/16 08:21:35;;;;;;;7.32;3.65;;;;;;;10.66;66.72;97212.16;4543158;26;20634;-82
2024/04/16 08:23:41;;;;;;;4.03;1.20;;;;;;;10.60;67.35;97202.22;4531864;26;20246;-81
2024/04/16 08:25:45;;;;;;;4.67;1.27;;;;;;;10.58;68.04;97204.94;4544785;26;20641;-81
2024/04/16 08:27:50;;;;;;;6.00;0.90;;;;;;;10.63;68.00;97207.19;4534364;26;20610;-81
2024/04/16 08:29:54;;;;;;;5.40;1.00;;;;;;;10.70;68.83;97203.13;4519975;26;20568;-81
2024/04/16 08:31:59;;;;;;;6.23;1.30;;;;;;;10.68;67.89;97205.84;4571878;25;20635;-81
2024/04/16 08:34:02;;;;;;;4.60;1.30;;;;;;;10.70;68.50;97209.16;4539166;26;20557;-81
2024/04/16 08:36:08;;;;;;;6.10;1.20;;;;;;;10.73;67.74;97213.31;4532842;26;20567;-81
2024/04/16 08:38:14;;;;;;;2.30;1.00;;;;;;;10.70;65.89;97218.78;4549573;26;20682;-81
2024/04/16 08:40:17;;;;;;;3.70;0.90;;;;;;;10.64;66.46;97225.31;4508034;26;20568;-81
2024/04/16 08:42:23;;;;;;;4.30;1.87;;;;;;;10.60;66.35;97223.94;4546716;26;20275;-81
2024/04/16 08:44:27;;;;;;;2.75;0.85;;;;;;;10.60;66.59;97223.94;4534879;26;20945;-81
2024/04/16 08:46:33;;;;;;;2.60;0.87;;;;;;;10.41;66.69;97212.53;4509237;26;20705;-81
2024/04/16 08:48:39;;;;;;;6.50;1.10;;;;;;;10.43;67.24;97208.84;4527980;26;20617;-82
2024/04/16 08:50:47;;;;;;;3.85;1.52;;;;;;;10.46;67.10;97212.97;4531010;26;20672;-82
2024/04/16 08:52:55;;;;;;;2.67;0.80;;;;;;;10.51;67.68;97209.03;4542030;26;20241;-82
2024/04/16 08:55:01;;;;;;;6.83;1.10;;;;;;;10.52;67.34;97196.81;4530837;26;20631;-82
2024/04/16 08:57:04;;;;;;;2.27;0.80;;;;;;;10.48;68.17;97211.91;4504195;26;20564;-81
2024/04/16 08:59:11;;;;;;;3.30;0.88;;;;;;;10.50;68.43;97214.38;4537793;26;20566;-81
2024/04/16 09:01:14;;;;;;;3.40;0.90;;;;;;;10.51;68.97;97227.28;4535591;26;20378;-81
2024/04/16 09:03:20;;;;;;;4.13;0.80;;;;;;;10.40;68.15;97210.84;4541718;26;20965;-82
2024/04/16 09:05:22;;;;;;;3.77;1.67;;;;;;;10.32;67.58;97205.44;4549628;26;20578;-80
2024/04/16 09:07:30;;;;;;;3.10;0.80;;;;;;;10.36;68.31;97214.69;4533506;26;20998;-81
2024/04/16 09:09:36;;;;;;;4.05;1.45;;;;;;;10.43;68.46;97214.06;4534038;26;20554;-81
2024/04/16 09:11:43;;;;;;;4.43;1.30;;;;;;;10.35;68.01;97213.84;4562782;26;20268;-81
2024/04/16 09:13:47;;;;;;;6.07;0.80;;;;;;;10.38;68.03;97210.97;4503322;26;20563;-81
2024/04/16 09:15:52;;;;;;;5.00;1.13;;;;;;;10.40;68.04;97200.44;4536716;26;20561;-82
2024/04/16 09:17:57;;;;;;;2.63;1.00;;;;;;;10.42;68.05;97212.41;4499468;26;20608;-82
2024/04/16 09:20:03;;;;;;;4.17;1.23;;;;;;;10.43;68.29;97223.63;4532817;26;20558;-82
2024/04/16 09:22:06;;;;;;;5.00;1.13;;;;;;;10.53;68.09;97220.16;4542741;26;20645;-82
2024/04/16 09:24:12;;;;;;;6.55;1.33;;;;;;;10.54;68.60;97214.00;4515432;26;21212;-82
2024/04/16 09:26:18;;;;;;;3.50;1.00;;;;;;;10.62;68.66;97221.19;4537848;26;20253;-82
2024/04/16 09:28:23;;;;;;;7.57;1.67;;;;;;;10.67;68.73;97219.03;4537266;26;20555;-82
2024/04/16 09:30:27;;;;;;;3.20;0.93;;;;;;;10.62;67.82;97211.59;4494171;26;20572;-82
2024/04/16 09:32:32;;;;;;;4.40;1.20;;;;;;;10.67;67.88;97214.63;4510444;26;20569;-81
2024/04/16 09:34:42;;;;;;;3.90;1.60;;;;;;;10.60;68.09;97190.03;4511948;26;20584;-83
2024/04/16 09:36:51;;;;;;;2.30;0.87;;;;;;;10.57;68.06;97197.25;4530963;26;20626;-82
2024/04/16 09:38:54;;;;;;;8.73;1.60;;;;;;;10.58;68.40;97199.75;4534539;26;21215;-83
2024/04/16 09:40:59;;;;;;;4.07;1.20;;;;;;;10.55;68.30;97204.38;4527611;26;21306;-82
2024/04/16 09:43:06;;;;;;;10.37;1.50;;;;;;;10.51;68.97;97200.41;4537511;26;20575;-82
2024/04/16 09:45:12;;;;;;;5.07;1.40;;;;;;;10.57;69.48;97203.31;4505718;26;20576;-82
2024/04/16 09:47:17;;;;;;;4.20;1.10;;;;;;;10.66;68.95;97199.97;4498838;26;20580;-82
2024/04/16 09:49:24;;;;;;;8.00;1.20;;;;;;;10.76;68.46;97187.78;4545532;26;20743;-82
2024/04/16 09:51:39;;;;;;;3.97;0.97;;;;;;;10.90;68.22;97195.31;4535583;26;20620;-82
2024/04/16 09:53:46;;;;;;;4.83;1.20;;;;;;;10.82;67.04;97180.31;4546314;26;20598;-82
2024/04/16 09:55:50;;;;;;;5.60;1.20;;;;;;;10.96;68.27;97171.28;4537167;26;20552;-80
2024/04/16 09:57:56;;;;;;;3.80;0.83;;;;;;;11.11;67.40;97177.81;4539211;26;20570;-82